Time;durP1;ratioP1;P1;durP2;ratioP2;P2;SDS_P1;SDS_P2;PMS_P1;PMS_P2;Temp;Humidity;BMP_temperature;BMP_pressure;BME280_temperature;BME280_humidity;BME280_pressure;Samples;Min_cycle;Max_cycle;Signal;HPM_P1;HPM_P2
2022/02/24 00:00:31;;;;;;;;;37.25;33.75;;;;;;;;5045645;28;11348;-81
2022/02/24 00:02:59;;;;;;;;;13.75;13.75;;;;;;;;5047200;28;11274;-81
2022/02/24 00:05:26;;;;;;;;;16.00;16.00;;;;;;;;5046864;28;10473;-81
2022/02/24 00:07:54;;;;;;;;;18.50;17.75;;;;;;;;5047936;28;11392;-80
2022/02/24 00:10:21;;;;;;;;;17.50;17.50;;;;;;;;5043550;28;10658;-80
2022/02/24 00:12:49;;;;;;;;;16.00;11.00;;;;;;;;5047052;28;10695;-81
2022/02/24 00:15:17;;;;;;;;;19.25;15.25;;;;;;;;5049919;28;10620;-82
2022/02/24 00:17:45;;;;;;;;;13.50;13.50;;;;;;;;5041839;28;10695;-81
2022/02/24 00:20:13;;;;;;;;;10.50;10.50;;;;;;;;5047752;28;10606;-81
2022/02/24 00:22:41;;;;;;;;;14.75;11.75;;;;;;;;5037185;28;10558;-81
2022/02/24 00:25:09;;;;;;;;;15.00;12.50;;;;;;;;5043743;28;10517;-81
2022/02/24 00:27:37;;;;;;;;;21.00;16.00;;;;;;;;5042448;28;10668;-81
2022/02/24 00:30:05;;;;;;;;;16.75;12.75;;;;;;;;5046647;28;10672;-81
2022/02/24 00:32:33;;;;;;;;;14.50;14.50;;;;;;;;5044730;28;10667;-81
2022/02/24 00:35:01;;;;;;;;;19.00;16.75;;;;;;;;5048231;28;10746;-81
2022/02/24 00:37:29;;;;;;;;;11.75;11.75;;;;;;;;5042194;28;11497;-81
2022/02/24 00:39:56;;;;;;;;;16.50;15.00;;;;;;;;5023723;28;10669;-80
2022/02/24 00:42:24;;;;;;;;;19.75;14.25;;;;;;;;5040807;28;10698;-81
2022/02/24 00:44:51;;;;;;;;;18.00;16.00;;;;;;;;5044866;28;10871;-81
2022/02/24 00:47:19;;;;;;;;;20.00;13.75;;;;;;;;5041232;28;10776;-81
2022/02/24 00:49:46;;;;;;;;;15.75;12.75;;;;;;;;5042396;28;10664;-81
2022/02/24 00:52:15;;;;;;;;;11.50;11.50;;;;;;;;5042450;28;10600;-81
2022/02/24 00:54:44;;;;;;;;;20.25;16.25;;;;;;;;5044960;28;11348;-81
2022/02/24 00:57:11;;;;;;;;;11.00;10.00;;;;;;;;5036673;28;10607;-81
2022/02/24 00:59:38;;;;;;;;;12.00;12.00;;;;;;;;5038767;28;10630;-82
2022/02/24 01:02:05;;;;;;;;;19.25;12.25;;;;;;;;5046032;28;10596;-81
2022/02/24 01:04:33;;;;;;;;;14.50;11.00;;;;;;;;5045033;28;10603;-81
2022/02/24 01:07:00;;;;;;;;;11.00;11.00;;;;;;;;5049195;28;10570;-81
2022/02/24 01:09:29;;;;;;;;;10.25;8.25;;;;;;;;5042377;28;10584;-81
2022/02/24 01:11:56;;;;;;;;;12.25;8.00;;;;;;;;5046241;28;10640;-82
2022/02/24 01:14:24;;;;;;;;;12.00;8.75;;;;;;;;5042773;28;10571;-81
2022/02/24 01:16:51;;;;;;;;;14.25;12.75;;;;;;;;5048354;28;10544;-81
2022/02/24 01:19:18;;;;;;;;;11.00;8.00;;;;;;;;5043512;28;10565;-81
2022/02/24 01:21:45;;;;;;;;;7.25;7.25;;;;;;;;5047348;28;10677;-81
2022/02/24 01:24:13;;;;;;;;;7.00;5.00;;;;;;;;5044083;28;10579;-80
2022/02/24 01:26:42;;;;;;;;;9.75;9.75;;;;;;;;5046498;28;10656;-80
2022/02/24 01:29:09;;;;;;;;;7.75;7.75;;;;;;;;5047925;28;10699;-80
2022/02/24 01:31:37;;;;;;;;;6.75;6.75;;;;;;;;5043849;28;10407;-81
2022/02/24 01:34:04;;;;;;;;;10.25;8.50;;;;;;;;5079870;28;10496;-80
2022/02/24 01:36:32;;;;;;;;;7.00;7.00;;;;;;;;5042168;28;10556;-81
2022/02/24 01:38:59;;;;;;;;;7.75;7.75;;;;;;;;5046410;28;10412;-80
2022/02/24 01:41:26;;;;;;;;;8.50;7.00;;;;;;;;5045300;28;10346;-80
2022/02/24 01:43:55;;;;;;;;;11.25;8.25;;;;;;;;5033731;28;11440;-81
2022/02/24 01:46:22;;;;;;;;;9.25;9.25;;;;;;;;5051209;28;11250;-80
2022/02/24 01:48:49;;;;;;;;;11.50;11.50;;;;;;;;5042189;28;10456;-81
2022/02/24 01:51:17;;;;;;;;;10.25;10.25;;;;;;;;5041552;28;10429;-81
2022/02/24 01:53:44;;;;;;;;;11.75;9.50;;;;;;;;5043892;28;10538;-80
2022/02/24 01:56:13;;;;;;;;;12.25;10.25;;;;;;;;5069891;28;10562;-80
2022/02/24 01:58:43;;;;;;;;;9.75;9.25;;;;;;;;5047639;28;10489;-80
2022/02/24 02:01:11;;;;;;;;;11.50;11.50;;;;;;;;5033694;28;10458;-81
2022/02/24 02:03:44;;;;;;;;;5.75;5.75;;;;;;;;5045667;28;11365;-81
2022/02/24 02:06:11;;;;;;;;;14.25;10.00;;;;;;;;5039933;28;10409;-81
2022/02/24 02:08:39;;;;;;;;;10.50;8.00;;;;;;;;5043798;28;10467;-82
2022/02/24 02:11:06;;;;;;;;;10.00;10.00;;;;;;;;5041223;28;10507;-81
2022/02/24 02:13:34;;;;;;;;;12.75;11.00;;;;;;;;5049446;28;10391;-81
2022/02/24 02:16:02;;;;;;;;;3.00;3.00;;;;;;;;5040742;28;10556;-81
2022/02/24 02:18:31;;;;;;;;;13.75;8.00;;;;;;;;5046441;28;10521;-81
2022/02/24 02:21:00;;;;;;;;;13.00;9.25;;;;;;;;5043708;28;10473;-81
2022/02/24 02:23:27;;;;;;;;;10.25;8.00;;;;;;;;5045011;28;10526;-81
2022/02/24 02:25:54;;;;;;;;;11.00;8.00;;;;;;;;5043811;28;10249;-81
2022/02/24 02:28:22;;;;;;;;;8.00;8.00;;;;;;;;5043912;28;10434;-81
2022/02/24 02:30:49;;;;;;;;;12.25;11.00;;;;;;;;5044683;28;10355;-81
2022/02/24 02:33:16;;;;;;;;;6.50;6.00;;;;;;;;5048002;28;10392;-81
2022/02/24 02:35:44;;;;;;;;;7.00;7.00;;;;;;;;5075428;28;10584;-81
2022/02/24 02:38:13;;;;;;;;;6.25;6.25;;;;;;;;5051409;28;10485;-80
2022/02/24 02:40:41;;;;;;;;;7.75;7.00;;;;;;;;5042922;28;10526;-79
2022/02/24 02:43:09;;;;;;;;;7.50;6.00;;;;;;;;5043594;28;10421;-81
2022/02/24 02:45:37;;;;;;;;;6.00;6.00;;;;;;;;5045540;28;10431;-81
2022/02/24 02:48:06;;;;;;;;;5.50;5.50;;;;;;;;5040210;28;10505;-81
2022/02/24 02:50:33;;;;;;;;;7.25;5.75;;;;;;;;5043444;28;10395;-80
2022/02/24 02:53:02;;;;;;;;;6.50;6.50;;;;;;;;5044926;28;10394;-81
2022/02/24 02:55:31;;;;;;;;;7.50;6.00;;;;;;;;5041059;28;10427;-81
2022/02/24 02:57:59;;;;;;;;;3.50;3.25;;;;;;;;5043924;28;10504;-80
2022/02/24 03:00:26;;;;;;;;;7.00;5.00;;;;;;;;5042133;28;10190;-81
2022/02/24 03:02:54;;;;;;;;;5.25;5.25;;;;;;;;5047360;28;10367;-81
2022/02/24 03:05:22;;;;;;;;;3.00;3.00;;;;;;;;5043957;28;11002;-80
2022/02/24 03:07:49;;;;;;;;;7.25;6.75;;;;;;;;5041290;28;10174;-80
2022/02/24 03:10:17;;;;;;;;;7.00;5.00;;;;;;;;5045954;28;10265;-81
2022/02/24 03:12:46;;;;;;;;;7.00;6.25;;;;;;;;5047795;28;10245;-80
2022/02/24 03:15:15;;;;;;;;;4.25;4.25;;;;;;;;5045443;28;11077;-80
2022/02/24 03:17:42;;;;;;;;;4.00;4.00;;;;;;;;5047541;28;10265;-80
2022/02/24 03:20:11;;;;;;;;;5.75;5.75;;;;;;;;5047242;28;10353;-80
2022/02/24 03:22:39;;;;;;;;;6.25;5.00;;;;;;;;5043224;28;10321;-80
2022/02/24 03:25:07;;;;;;;;;8.00;4.25;;;;;;;;5042801;28;10310;-80
2022/02/24 03:27:34;;;;;;;;;10.00;7.50;;;;;;;;5044732;28;11653;-80
2022/02/24 03:30:04;;;;;;;;;6.50;5.50;;;;;;;;5049918;28;10527;-80
2022/02/24 03:32:32;;;;;;;;;6.50;6.50;;;;;;;;5041717;28;10198;-81
2022/02/24 03:34:59;;;;;;;;;12.50;5.50;;;;;;;;5030913;28;10208;-81
2022/02/24 03:37:26;;;;;;;;;5.25;4.25;;;;;;;;5043623;28;10246;-81
2022/02/24 03:39:53;;;;;;;;;5.00;5.00;;;;;;;;5046180;28;10210;-80
2022/02/24 03:42:21;;;;;;;;;7.75;6.00;;;;;;;;5074084;28;10411;-81
2022/02/24 03:44:48;;;;;;;;;4.25;4.25;;;;;;;;5077000;28;10260;-81
2022/02/24 03:47:17;;;;;;;;;6.25;6.25;;;;;;;;5048894;28;10360;-80
2022/02/24 03:49:44;;;;;;;;;5.25;5.25;;;;;;;;5042255;28;10308;-80
2022/02/24 03:52:11;;;;;;;;;6.50;4.00;;;;;;;;5051481;28;10187;-81
2022/02/24 03:54:39;;;;;;;;;6.00;3.50;;;;;;;;5042982;28;10281;-81
2022/02/24 03:57:06;;;;;;;;;5.25;3.00;;;;;;;;5045016;28;10185;-80
2022/02/24 03:59:34;;;;;;;;;5.00;5.00;;;;;;;;5043004;28;10346;-80
2022/02/24 04:02:01;;;;;;;;;6.00;6.00;;;;;;;;5044868;28;10216;-81
2022/02/24 04:04:30;;;;;;;;;5.00;5.00;;;;;;;;5045235;28;10322;-80
2022/02/24 04:06:57;;;;;;;;;4.75;4.75;;;;;;;;5045738;28;10323;-80
2022/02/24 04:09:24;;;;;;;;;4.00;4.00;;;;;;;;5042284;28;10257;-81
2022/02/24 04:11:52;;;;;;;;;4.75;4.75;;;;;;;;5050214;28;10355;-81
2022/02/24 04:14:19;;;;;;;;;5.25;5.25;;;;;;;;5044011;28;10264;-81
2022/02/24 04:16:46;;;;;;;;;9.50;5.75;;;;;;;;5048313;28;10272;-81
2022/02/24 04:19:14;;;;;;;;;3.00;3.00;;;;;;;;5048861;28;10154;-81
2022/02/24 04:21:43;;;;;;;;;6.00;6.00;;;;;;;;5041739;28;10294;-81
2022/02/24 04:24:11;;;;;;;;;5.00;5.00;;;;;;;;5040878;28;10404;-81
2022/02/24 04:26:38;;;;;;;;;6.50;5.00;;;;;;;;5045767;28;10234;-81
2022/02/24 04:29:06;;;;;;;;;4.25;3.00;;;;;;;;5041698;28;10104;-81
2022/02/24 04:31:33;;;;;;;;;5.25;5.00;;;;;;;;5050971;28;10036;-80
2022/02/24 04:34:01;;;;;;;;;6.75;5.00;;;;;;;;5020709;28;10836;-81
2022/02/24 04:36:28;;;;;;;;;3.75;3.75;;;;;;;;5042780;28;10114;-81
2022/02/24 04:38:57;;;;;;;;;4.50;4.50;;;;;;;;5045634;28;10276;-80
2022/02/24 04:41:24;;;;;;;;;4.25;3.00;;;;;;;;5048346;28;10257;-81
2022/02/24 04:43:51;;;;;;;;;5.00;3.00;;;;;;;;5040867;28;10134;-81
2022/02/24 04:46:20;;;;;;;;;5.00;5.00;;;;;;;;5040544;28;10233;-80
2022/02/24 04:48:47;;;;;;;;;5.00;5.00;;;;;;;;5040709;28;10144;-82
2022/02/24 04:51:15;;;;;;;;;4.75;4.75;;;;;;;;5045615;28;10121;-81
2022/02/24 04:53:42;;;;;;;;;5.00;5.00;;;;;;;;5042046;28;10239;-82
2022/02/24 04:56:11;;;;;;;;;7.00;7.00;;;;;;;;5036231;28;10275;-81
2022/02/24 04:58:38;;;;;;;;;7.00;7.00;;;;;;;;5042208;28;10379;-81
2022/02/24 05:01:05;;;;;;;;;12.50;7.75;;;;;;;;5042846;28;10179;-82
2022/02/24 05:03:33;;;;;;;;;8.00;7.00;;;;;;;;5077154;28;10313;-81
2022/02/24 05:06:01;;;;;;;;;4.50;3.25;;;;;;;;5051750;28;10345;-81
2022/02/24 05:08:29;;;;;;;;;7.50;7.50;;;;;;;;5041496;28;10402;-81
2022/02/24 05:10:56;;;;;;;;;7.00;7.00;;;;;;;;5050619;28;10344;-83
2022/02/24 05:13:25;;;;;;;;;7.00;5.00;;;;;;;;5045966;28;10449;-81
2022/02/24 05:15:52;;;;;;;;;7.00;5.25;;;;;;;;5047421;28;10510;-81
2022/02/24 05:18:20;;;;;;;;;7.00;7.00;;;;;;;;5041857;28;10429;-80
2022/02/24 05:20:47;;;;;;;;;5.25;3.25;;;;;;;;5038726;28;10501;-81
2022/02/24 05:23:14;;;;;;;;;10.75;10.75;;;;;;;;5039848;28;10483;-82
2022/02/24 05:25:42;;;;;;;;;8.00;8.00;;;;;;;;5070547;28;10700;-80
2022/02/24 05:28:10;;;;;;;;;8.25;6.50;;;;;;;;5039473;28;11465;-80
2022/02/24 05:30:39;;;;;;;;;11.25;8.00;;;;;;;;5038829;28;11330;-80
2022/02/24 05:33:09;;;;;;;;;9.00;9.00;;;;;;;;5041135;28;10648;-81
2022/02/24 05:35:36;;;;;;;;;10.50;9.50;;;;;;;;5042753;28;10826;-81
2022/02/24 05:38:04;;;;;;;;;7.75;7.75;;;;;;;;5042882;28;10908;-82
2022/02/24 05:40:31;;;;;;;;;11.00;7.50;;;;;;;;5043715;28;10593;-82
2022/02/24 05:42:58;;;;;;;;;11.25;10.00;;;;;;;;5040749;28;10870;-82
2022/02/24 05:45:26;;;;;;;;;13.25;8.75;;;;;;;;5038433;28;10914;-83
2022/02/24 05:47:55;;;;;;;;;26.75;22.50;;;;;;;;5039565;28;11024;-80
2022/02/24 05:50:22;;;;;;;;;19.75;16.00;;;;;;;;5042024;28;11521;-81
2022/02/24 05:52:50;;;;;;;;;8.75;7.00;;;;;;;;5043364;28;11129;-81
2022/02/24 05:55:17;;;;;;;;;10.00;10.00;;;;;;;;5045811;28;10841;-81
2022/02/24 05:57:45;;;;;;;;;9.25;9.00;;;;;;;;5047332;28;11466;-82
2022/02/24 06:00:13;;;;;;;;;9.50;9.50;;;;;;;;5045740;28;11119;-81
2022/02/24 06:02:41;;;;;;;;;8.25;8.25;;;;;;;;5046004;28;11080;-79
2022/02/24 06:05:11;;;;;;;;;14.50;10.50;;;;;;;;5045638;28;11094;-79
2022/02/24 06:07:38;;;;;;;;;9.75;8.00;;;;;;;;5041968;28;11931;-79
2022/02/24 06:10:06;;;;;;;;;6.00;6.00;;;;;;;;5044328;28;11020;-79
2022/02/24 06:12:34;;;;;;;;;5.25;5.25;;;;;;;;5047860;28;11012;-79
2022/02/24 06:15:01;;;;;;;;;8.00;8.00;;;;;;;;5046600;28;11767;-79
2022/02/24 06:17:29;;;;;;;;;10.50;6.25;;;;;;;;5041219;28;12043;-77
2022/02/24 06:19:56;;;;;;;;;6.25;6.00;;;;;;;;5044011;28;11171;-79
2022/02/24 06:22:25;;;;;;;;;9.00;6.50;;;;;;;;5045686;28;11093;-79
2022/02/24 06:24:54;;;;;;;;;10.75;8.50;;;;;;;;5044194;28;11255;-79
2022/02/24 06:27:21;;;;;;;;;6.00;5.75;;;;;;;;5043995;28;11241;-79
2022/02/24 06:29:49;;;;;;;;;10.25;7.50;;;;;;;;5043932;28;11017;-79
2022/02/24 06:32:16;;;;;;;;;5.00;5.00;;;;;;;;5063708;28;11105;-86
2022/02/24 06:34:44;;;;;;;;;6.25;6.25;;;;;;;;5036810;28;11060;-83
2022/02/24 06:37:12;;;;;;;;;6.75;4.50;;;;;;;;5046637;28;11033;-81
2022/02/24 06:39:40;;;;;;;;;5.50;5.50;;;;;;;;5040073;28;11070;-90
2022/02/24 06:42:08;;;;;;;;;9.50;7.00;;;;;;;;5046358;28;11025;-78
2022/02/24 06:44:36;;;;;;;;;6.00;6.00;;;;;;;;5048865;28;11495;-88
2022/02/24 06:47:03;;;;;;;;;5.00;4.00;;;;;;;;5045993;28;11204;-88
2022/02/24 06:49:31;;;;;;;;;5.00;5.00;;;;;;;;5043238;28;11174;-87
2022/02/24 06:51:59;;;;;;;;;5.75;5.75;;;;;;;;5052545;28;11370;-87
2022/02/24 06:54:26;;;;;;;;;6.00;3.00;;;;;;;;5036840;28;11183;-85
2022/02/24 06:56:55;;;;;;;;;2.00;2.00;;;;;;;;5050906;28;11159;-89
2022/02/24 06:59:22;;;;;;;;;5.75;5.00;;;;;;;;5050139;28;11452;-89
2022/02/24 07:01:49;;;;;;;;;7.00;7.00;;;;;;;;5055677;28;11204;-85
2022/02/24 07:04:17;;;;;;;;;5.00;5.00;;;;;;;;5062317;28;11087;-90
2022/02/24 07:06:47;;;;;;;;;2.00;2.00;;;;;;;;5052185;28;11137;-84
2022/02/24 07:09:15;;;;;;;;;6.00;3.50;;;;;;;;5054077;28;11130;-80
2022/02/24 07:11:42;;;;;;;;;6.00;3.00;;;;;;;;5050257;28;11121;-88
2022/02/24 07:14:11;;;;;;;;;6.00;4.50;;;;;;;;5047652;28;11014;-88
2022/02/24 07:16:38;;;;;;;;;5.25;2.50;;;;;;;;5045466;28;11000;-87
2022/02/24 07:19:06;;;;;;;;;6.00;3.50;;;;;;;;5074548;28;10978;-85
2022/02/24 07:21:33;;;;;;;;;5.00;2.00;;;;;;;;5047917;28;11192;-88
2022/02/24 07:24:00;;;;;;;;;2.75;2.75;;;;;;;;5047004;28;10902;-84
2022/02/24 07:26:28;;;;;;;;;1.75;1.75;;;;;;;;5045046;28;10925;-89
2022/02/24 07:28:55;;;;;;;;;5.00;2.50;;;;;;;;5042633;28;10943;-87
2022/02/24 07:31:24;;;;;;;;;2.50;2.50;;;;;;;;5046172;28;11537;-83
2022/02/24 07:33:52;;;;;;;;;2.00;2.00;;;;;;;;5046315;28;10832;-89
2022/02/24 07:36:19;;;;;;;;;5.00;3.00;;;;;;;;5051524;28;10988;-89
2022/02/24 07:38:47;;;;;;;;;1.25;1.25;;;;;;;;5048254;28;10908;-85
2022/02/24 07:41:14;;;;;;;;;5.00;3.00;;;;;;;;5046813;28;10831;-88
2022/02/24 07:43:42;;;;;;;;;2.50;2.50;;;;;;;;5060420;28;10791;-88
2022/02/24 07:46:09;;;;;;;;;7.25;5.00;;;;;;;;5053528;28;11365;-91
2022/02/24 07:48:38;;;;;;;;;2.50;2.00;;;;;;;;5053793;28;10951;-89
2022/02/24 07:51:05;;;;;;;;;1.50;1.50;;;;;;;;5044199;28;10769;-86
2022/02/24 07:53:33;;;;;;;;;2.00;2.00;;;;;;;;5050878;28;10696;-89
2022/02/24 07:56:00;;;;;;;;;3.25;2.50;;;;;;;;5046562;28;10769;-90
2022/02/24 07:58:27;;;;;;;;;1.25;1.25;;;;;;;;5041580;28;10835;-82
2022/02/24 08:00:55;;;;;;;;;2.25;2.25;;;;;;;;5066796;28;10629;-80
2022/02/24 08:03:22;;;;;;;;;2.00;2.00;;;;;;;;5038400;28;10790;-77
2022/02/24 08:05:51;;;;;;;;;1.75;1.75;;;;;;;;5043502;28;10637;-76
2022/02/24 08:08:19;;;;;;;;;1.50;1.50;;;;;;;;5041922;28;11435;-77
2022/02/24 08:10:47;;;;;;;;;1.00;1.00;;;;;;;;5043554;28;10463;-79
2022/02/24 08:13:15;;;;;;;;;1.00;1.00;;;;;;;;5048364;28;10476;-79
2022/02/24 08:15:42;;;;;;;;;2.00;1.00;;;;;;;;5045126;28;10402;-79
2022/02/24 08:18:10;;;;;;;;;1.50;1.50;;;;;;;;5047771;28;10491;-84
2022/02/24 08:20:37;;;;;;;;;1.00;1.00;;;;;;;;5040810;28;10515;-83
2022/02/24 08:23:06;;;;;;;;;2.00;1.00;;;;;;;;5049797;28;10423;-84
2022/02/24 08:25:34;;;;;;;;;1.00;1.00;;;;;;;;5041555;28;10338;-83
2022/02/24 08:28:01;;;;;;;;;6.25;2.25;;;;;;;;5041689;28;10337;-82
2022/02/24 08:30:29;;;;;;;;;1.00;1.00;;;;;;;;5043063;28;10329;-81
2022/02/24 08:32:56;;;;;;;;;1.00;1.00;;;;;;;;5045508;28;10349;-83
2022/02/24 08:35:25;;;;;;;;;1.00;1.00;;;;;;;;5048547;28;10453;-83
2022/02/24 08:37:52;;;;;;;;;5.00;1.00;;;;;;;;5044404;28;10244;-80
2022/02/24 08:40:22;;;;;;;;;1.00;1.00;;;;;;;;5041523;28;10449;-80
2022/02/24 08:42:50;;;;;;;;;1.00;1.00;;;;;;;;5041709;28;10203;-81
2022/02/24 08:45:18;;;;;;;;;1.25;1.25;;;;;;;;5038128;28;10392;-77
2022/02/24 08:47:45;;;;;;;;;2.25;1.00;;;;;;;;5046564;28;11244;-78
2022/02/24 08:50:14;;;;;;;;;1.00;1.00;;;;;;;;5027711;28;11090;-80
2022/02/24 08:52:42;;;;;;;;;1.50;1.50;;;;;;;;5054017;28;10230;-79
2022/02/24 08:55:09;;;;;;;;;1.25;1.25;;;;;;;;5046619;28;10522;-81
2022/02/24 08:57:38;;;;;;;;;1.00;1.00;;;;;;;;5048086;28;10397;-78
2022/02/24 09:00:08;;;;;;;;;3.00;2.00;;;;;;;;5039703;28;10475;-78
2022/02/24 09:02:35;;;;;;;;;3.00;1.00;;;;;;;;5037144;28;10306;-81
2022/02/24 09:05:02;;;;;;;;;1.00;1.00;;;;;;;;5042047;28;10401;-78
2022/02/24 09:07:30;;;;;;;;;3.50;2.00;;;;;;;;5046981;28;10357;-81
2022/02/24 09:09:57;;;;;;;;;5.00;2.75;;;;;;;;5043275;28;10457;-78
2022/02/24 09:12:24;;;;;;;;;1.50;1.00;;;;;;;;5050200;28;10351;-85
2022/02/24 09:14:53;;;;;;;;;2.25;0.50;;;;;;;;5046575;28;11124;-84
2022/02/24 09:17:21;;;;;;;;;1.25;1.25;;;;;;;;5045216;28;10474;-81
2022/02/24 09:19:50;;;;;;;;;2.00;1.25;;;;;;;;5045191;28;10580;-85
2022/02/24 09:22:17;;;;;;;;;3.00;3.00;;;;;;;;5044611;28;10431;-84
2022/02/24 09:24:44;;;;;;;;;2.50;1.25;;;;;;;;5042214;28;10553;-82
2022/02/24 09:27:12;;;;;;;;;0.00;0.00;;;;;;;;5046853;28;10515;-78
2022/02/24 09:29:39;;;;;;;;;2.00;1.00;;;;;;;;5052117;28;10459;-79
2022/02/24 09:32:09;;;;;;;;;0.25;0.25;;;;;;;;5048357;28;10330;-78
2022/02/24 09:34:37;;;;;;;;;1.00;1.00;;;;;;;;5082615;28;10353;-79
2022/02/24 09:37:04;;;;;;;;;1.00;1.00;;;;;;;;5053273;28;10368;-79
2022/02/24 09:39:32;;;;;;;;;1.25;1.25;;;;;;;;5044776;28;10308;-80
2022/02/24 09:42:00;;;;;;;;;2.00;1.00;;;;;;;;5051408;28;10318;-82
2022/02/24 09:44:27;;;;;;;;;1.00;1.00;;;;;;;;5050631;28;10428;-79
2022/02/24 09:46:55;;;;;;;;;2.00;0.50;;;;;;;;5049678;28;10227;-78
2022/02/24 09:49:25;;;;;;;;;1.00;0.50;;;;;;;;5052731;28;10246;-79
2022/02/24 09:51:53;;;;;;;;;5.00;1.50;;;;;;;;5045972;28;10218;-78
2022/02/24 09:54:20;;;;;;;;;3.00;1.00;;;;;;;;5040456;28;10188;-79
2022/02/24 09:56:47;;;;;;;;;1.00;1.00;;;;;;;;5050367;28;10170;-82
2022/02/24 09:59:15;;;;;;;;;0.00;0.00;;;;;;;;5051952;28;10084;-80
2022/02/24 10:01:45;;;;;;;;;1.00;1.00;;;;;;;;5052472;28;10050;-80
2022/02/24 10:04:12;;;;;;;;;0.75;0.75;;;;;;;;5032386;28;10150;-80
2022/02/24 10:06:43;;;;;;;;;0.75;0.75;;;;;;;;5044878;28;10026;-79
2022/02/24 10:09:12;;;;;;;;;1.00;1.00;;;;;;;;5049480;28;9949;-81
2022/02/24 10:11:40;;;;;;;;;3.00;1.25;;;;;;;;5045152;28;9966;-79
2022/02/24 10:14:09;;;;;;;;;1.00;1.00;;;;;;;;5045158;28;10081;-80
2022/02/24 10:16:53;;;;;;;;;1.00;1.00;;;;;;;;5043672;28;10040;-79
2022/02/24 10:19:28;;;;;;;;;1.00;1.00;;;;;;;;5048510;28;9950;-79
2022/02/24 10:22:10;;;;;;;;;0.75;0.75;;;;;;;;5047154;28;9785;-78
2022/02/24 10:24:39;;;;;;;;;1.25;1.25;;;;;;;;5056361;28;9675;-81
2022/02/24 10:27:24;;;;;;;;;1.25;1.25;;;;;;;;5049215;28;9792;-82
2022/02/24 10:30:02;;;;;;;;;1.00;1.00;;;;;;;;5047201;28;10605;-80
2022/02/24 10:32:33;;;;;;;;;1.00;1.00;;;;;;;;5057811;28;9435;-80
2022/02/24 10:35:21;;;;;;;;;0.67;0.67;;;;;;;;5039304;28;9390;-78
2022/02/24 10:37:58;;;;;;;;;1.33;1.00;;;;;;;;5053485;28;9089;-79
2022/02/24 10:40:27;;;;;;;;;0.00;0.00;;;;;;;;5053718;28;9181;-79
2022/02/24 10:42:55;;;;;;;;;1.00;1.00;;;;;;;;5050577;28;9115;-80
2022/02/24 10:45:26;;;;;;;;;0.00;0.00;;;;;;;;5050003;28;10468;-80
2022/02/24 10:48:01;;;;;;;;;2.00;0.33;;;;;;;;5044023;28;9943;-79
2022/02/24 10:50:51;;;;;;;;;1.50;0.25;;;;;;;;5039604;28;9052;-79
2022/02/24 10:53:22;;;;;;;;;0.00;0.00;;;;;;;;5049106;28;8874;-79
2022/02/24 10:56:09;;;;;;;;;0.50;0.50;;;;;;;;5049684;28;8903;-80
2022/02/24 10:58:38;;;;;;;;;1.00;1.00;;;;;;;;5038678;28;8914;-80
2022/02/24 11:01:08;;;;;;;;;0.00;0.00;;;;;;;;5048180;28;8825;-80
2022/02/24 11:03:36;;;;;;;;;2.00;0.00;;;;;;;;5053864;28;10270;-79
2022/02/24 11:06:05;;;;;;;;;0.00;0.00;;;;;;;;5046514;28;8880;-77
2022/02/24 11:08:35;;;;;;;;;1.00;0.75;;;;;;;;5043985;28;8865;-81
2022/02/24 11:11:04;;;;;;;;;0.00;0.00;;;;;;;;5045283;28;8865;-75
2022/02/24 11:13:32;;;;;;;;;0.50;0.50;;;;;;;;5047365;28;8869;-80
2022/02/24 11:16:00;;;;;;;;;0.00;0.00;;;;;;;;5041538;28;8861;-80
2022/02/24 11:18:28;;;;;;;;;1.50;0.75;;;;;;;;5047067;28;8857;-79
2022/02/24 11:20:58;;;;;;;;;0.00;0.00;;;;;;;;5045752;28;8865;-80
2022/02/24 11:23:26;;;;;;;;;0.50;0.50;;;;;;;;5044517;28;8887;-78
2022/02/24 11:26:35;;;;;;;;;2.00;1.00;;;;;;;;5041918;28;8845;-78
2022/02/24 11:29:22;;;;;;;;;2.00;0.25;;;;;;;;4995915;28;9703;-77
2022/02/24 11:31:57;;;;;;;;;0.00;0.00;;;;;;;;5045213;28;8826;-78
2022/02/24 11:34:58;;;;;;;;;1.50;0.00;;;;;;;;5043526;28;8877;-78
2022/02/24 11:37:27;;;;;;;;;0.00;0.00;;;;;;;;5024397;28;8967;-78
2022/02/24 11:40:07;;;;;;;;;2.00;0.00;;;;;;;;5045065;28;8903;-77
2022/02/24 11:42:36;;;;;;;;;0.75;0.75;;;;;;;;5040001;28;8849;-80
2022/02/24 11:45:33;;;;;;;;;2.00;0.00;;;;;;;;5049805;28;8991;-77
2022/02/24 11:48:02;;;;;;;;;0.00;0.00;;;;;;;;5045579;28;9671;-76
2022/02/24 11:50:31;;;;;;;;;0.00;0.00;;;;;;;;5045632;28;8857;-79
2022/02/24 11:52:59;;;;;;;;;1.00;1.00;;;;;;;;5043157;28;8894;-77
2022/02/24 11:55:52;;;;;;;;;2.00;0.00;;;;;;;;5047698;28;8895;-76
2022/02/24 11:58:51;;;;;;;;;0.00;0.00;;;;;;;;5041656;28;9041;-77
2022/02/24 12:01:29;;;;;;;;;2.75;0.75;;;;;;;;5043452;28;8830;-76
2022/02/24 12:04:02;;;;;;;;;0.00;0.00;;;;;;;;5036073;28;9615;-78
2022/02/24 12:07:00;;;;;;;;;0.00;0.00;;;;;;;;5039933;28;8907;-79
2022/02/24 12:09:34;;;;;;;;;0.00;0.00;;;;;;;;5043565;28;9564;-79
2022/02/24 12:12:04;;;;;;;;;1.50;0.00;;;;;;;;5040399;28;9063;-78
2022/02/24 12:14:56;;;;;;;;;1.67;1.00;;;;;;;;5043244;28;9619;-77
2022/02/24 12:17:27;;;;;;;;;0.33;0.33;;;;;;;;5040117;28;9093;-78
2022/02/24 12:19:57;;;;;;;;;1.33;0.00;;;;;;;;5048750;28;8982;-78
2022/02/24 12:22:39;;;;;;;;;2.00;0.00;;;;;;;;5042732;28;8981;-77
2022/02/24 12:25:16;;;;;;;;;1.00;1.00;;;;;;;;5042068;28;9145;-77
2022/02/24 12:27:46;;;;;;;;;2.00;0.67;;;;;;;;5043624;28;9019;-77
2022/02/24 12:30:35;;;;;;;;;0.00;0.00;;;;;;;;5045833;28;9207;-81
2022/02/24 12:33:07;;;;;;;;;0.00;0.00;;;;;;;;5038022;28;9042;-76
2022/02/24 12:35:38;;;;;;;;;0.00;0.00;;;;;;;;5036593;28;9618;-75
2022/02/24 12:38:06;;;;;;;;;0.00;0.00;;;;;;;;5037461;28;9437;-76
2022/02/24 12:40:35;;;;;;;;;1.33;1.00;;;;;;;;5041828;28;9026;-74
2022/02/24 12:43:04;;;;;;;;;1.00;1.00;;;;;;;;5039491;28;8954;-74
2022/02/24 12:45:32;;;;;;;;;0.00;0.00;;;;;;;;5043480;28;9054;-77
2022/02/24 12:48:01;;;;;;;;;2.00;1.00;;;;;;;;5041355;28;9023;-74
2022/02/24 12:50:36;;;;;;;;;0.33;0.33;;;;;;;;5043292;28;9953;-72
2022/02/24 12:53:12;;;;;;;;;1.00;1.00;;;;;;;;5041146;28;9176;-74
2022/02/24 12:55:39;;;;;;;;;0.00;0.00;;;;;;;;5045255;28;9208;-73
2022/02/24 12:58:08;;;;;;;;;3.00;1.00;;;;;;;;5040448;28;10009;-74
2022/02/24 13:00:37;;;;;;;;;1.00;1.00;;;;;;;;5048684;28;9597;-76
2022/02/24 13:03:05;;;;;;;;;1.00;1.00;;;;;;;;5042476;28;9232;-74
2022/02/24 13:05:35;;;;;;;;;1.00;1.00;;;;;;;;5042318;28;9194;-74
2022/02/24 13:10:56;;;;;;;;;0.67;0.67;;;;;;;;5043697;28;9244;-75
2022/02/24 13:13:24;;;;;;;;;1.00;1.00;;;;;;;;5048229;28;9099;-76
2022/02/24 13:15:53;;;;;;;;;2.00;1.33;;;;;;;;5044191;28;9309;-77
2022/02/24 13:18:20;;;;;;;;;0.00;0.00;;;;;;;;5042350;28;9393;-77
2022/02/24 13:20:49;;;;;;;;;0.00;0.00;;;;;;;;5043993;28;9638;-77
2022/02/24 13:23:16;;;;;;;;;0.00;0.00;;;;;;;;5043397;28;10258;-76
2022/02/24 13:25:43;;;;;;;;;0.00;0.00;;;;;;;;5038950;28;10783;-75
2022/02/24 13:28:11;;;;;;;;;0.00;0.00;;;;;;;;5045327;28;11080;-75
2022/02/24 13:30:39;;;;;;;;;0.00;0.00;;;;;;;;5047299;28;10971;-75
2022/02/24 13:33:07;;;;;;;;;0.00;0.00;;;;;;;;5047652;28;11451;-75
2022/02/24 13:35:39;;;;;;;;;0.00;0.00;;;;;;;;5043951;28;11112;-74
2022/02/24 13:38:10;;;;;;;;;0.00;0.00;;;;;;;;5048867;28;11212;-75
2022/02/24 13:40:47;;;;;;;;;0.00;0.00;;;;;;;;5044217;28;11479;-75
2022/02/24 13:43:15;;;;;;;;;0.00;0.00;;;;;;;;5041442;28;11476;-75
2022/02/24 13:45:43;;;;;;;;;0.00;0.00;;;;;;;;5040512;28;11453;-75
2022/02/24 13:48:12;;;;;;;;;1.00;0.00;;;;;;;;5035122;28;11447;-75
2022/02/24 13:50:41;;;;;;;;;0.00;0.00;;;;;;;;5041987;28;12005;-76
2022/02/24 13:53:15;;;;;;;;;0.00;0.00;;;;;;;;5041617;28;11035;-73
2022/02/24 13:55:53;;;;;;;;;0.00;0.00;;;;;;;;5045596;28;11080;-74
2022/02/24 13:58:28;;;;;;;;;0.00;0.00;;;;;;;;5042133;28;10890;-75
2022/02/24 14:00:57;;;;;;;;;0.00;0.00;;;;;;;;5041760;28;10885;-73
2022/02/24 14:03:32;;;;;;;;;1.00;0.00;;;;;;;;5047468;28;10936;-74
2022/02/24 14:06:09;;;;;;;;;0.00;0.00;;;;;;;;5039774;28;10887;-73
2022/02/24 14:08:38;;;;;;;;;0.00;0.00;;;;;;;;5043422;28;10915;-75
2022/02/24 14:11:11;;;;;;;;;0.00;0.00;;;;;;;;5040925;28;10812;-76
2022/02/24 14:13:40;;;;;;;;;0.00;0.00;;;;;;;;5043433;28;11080;-74
2022/02/24 14:16:07;;;;;;;;;0.00;0.00;;;;;;;;5041673;28;10982;-75
2022/02/24 14:18:35;;;;;;;;;0.00;0.00;;;;;;;;5044927;28;10874;-75
2022/02/24 14:21:03;;;;;;;;;0.00;0.00;;;;;;;;5048523;28;11015;-76
2022/02/24 14:23:30;;;;;;;;;0.00;0.00;;;;;;;;5044941;28;11883;-75
2022/02/24 14:25:59;;;;;;;;;0.00;0.00;;;;;;;;5046597;28;11617;-75
2022/02/24 14:28:27;;;;;;;;;0.00;0.00;;;;;;;;5045992;28;10817;-75
2022/02/24 14:30:54;;;;;;;;;0.00;0.00;;;;;;;;5045972;28;10764;-75
2022/02/24 14:33:22;;;;;;;;;0.00;0.00;;;;;;;;5046082;28;10877;-74
2022/02/24 14:35:50;;;;;;;;;0.00;0.00;;;;;;;;5049071;28;10919;-75
2022/02/24 14:38:18;;;;;;;;;0.00;0.00;;;;;;;;5047399;28;10908;-74
2022/02/24 14:40:46;;;;;;;;;1.00;0.00;;;;;;;;5048360;28;10954;-76
2022/02/24 14:43:16;;;;;;;;;0.00;0.00;;;;;;;;5042400;28;10980;-75
2022/02/24 14:45:45;;;;;;;;;0.00;0.00;;;;;;;;5048439;28;10867;-75
2022/02/24 14:48:13;;;;;;;;;0.00;0.00;;;;;;;;5041536;28;10676;-75
2022/02/24 14:50:41;;;;;;;;;0.00;0.00;;;;;;;;5050910;28;10762;-75
2022/02/24 14:53:08;;;;;;;;;0.00;0.00;;;;;;;;5045068;28;10699;-76
2022/02/24 14:55:37;;;;;;;;;0.00;0.00;;;;;;;;5044079;28;10829;-74